Time;durP1;ratioP1;P1;durP2;ratioP2;P2;SDS_P1;SDS_P2;PMS_P1;PMS_P2;Temp;Humidity;BMP_temperature;BMP_pressure;BME280_temperature;BME280_humidity;BME280_pressure;Samples;Min_cycle;Max_cycle;Signal;HPM_P1;HPM_P2
2024/01/10 00:01:14;;;;;;;6.13;3.45;;;;;;;-2.80;54.55;102986.22;5254452;28;20036;-76
2024/01/10 00:03:46;;;;;;;6.68;3.53;;;;;;;-2.86;53.36;102972.50;5251213;28;20048;-76
2024/01/10 00:06:18;;;;;;;5.43;3.58;;;;;;;-2.82;54.15;102989.63;5254347;28;20067;-76
2024/01/10 00:08:50;;;;;;;9.13;4.03;;;;;;;-2.77;55.99;102991.34;5255172;28;20033;-76
2024/01/10 00:11:22;;;;;;;5.80;3.65;;;;;;;-2.82;54.93;102992.19;5239630;28;20041;-76
2024/01/10 00:13:59;;;;;;;6.95;3.33;;;;;;;-2.79;55.71;102987.06;5253604;28;20116;-76
2024/01/10 00:16:31;;;;;;;6.72;3.65;;;;;;;-2.88;55.12;102981.88;5257269;28;20040;-75
2024/01/10 00:19:03;;;;;;;5.15;3.50;;;;;;;-2.90;54.79;102974.19;5254659;28;20033;-76
2024/01/10 00:21:36;;;;;;;6.03;3.25;;;;;;;-2.93;55.00;102976.72;5255448;28;20060;-76
2024/01/10 00:24:07;;;;;;;6.73;3.63;;;;;;;-2.95;56.24;102968.19;5250890;28;20020;-76
2024/01/10 00:26:39;;;;;;;5.80;3.65;;;;;;;-2.92;55.87;102968.16;5255144;28;20479;-76
2024/01/10 00:29:11;;;;;;;6.05;3.75;;;;;;;-2.99;54.46;102963.88;5254763;28;20041;-76
2024/01/10 00:31:43;;;;;;;8.00;4.47;;;;;;;-3.06;55.50;102963.00;5257974;28;20039;-76
2024/01/10 00:34:15;;;;;;;6.55;4.00;;;;;;;-3.07;55.30;102958.72;5256358;28;20025;-75
2024/01/10 00:36:47;;;;;;;7.20;4.28;;;;;;;-3.16;55.27;102944.97;5253336;28;20032;-76
2024/01/10 00:39:19;;;;;;;7.50;3.97;;;;;;;-3.03;57.44;102964.69;5257025;28;20046;-76
2024/01/10 00:41:51;;;;;;;8.40;4.32;;;;;;;-3.00;57.53;102969.84;5256372;28;20021;-76
2024/01/10 00:44:23;;;;;;;6.15;3.67;;;;;;;-3.04;54.87;102968.97;5256754;28;20039;-76
2024/01/10 00:46:55;;;;;;;5.47;3.35;;;;;;;-3.04;55.66;102973.25;5256931;28;20044;-76
2024/01/10 00:49:27;;;;;;;6.55;3.25;;;;;;;-3.08;54.24;102976.63;5258095;28;20033;-76
2024/01/10 00:51:59;;;;;;;4.47;3.08;;;;;;;-3.22;56.59;102951.78;5263219;28;20037;-76
2024/01/10 00:54:31;;;;;;;6.47;3.63;;;;;;;-3.14;55.88;102958.63;5261155;28;20016;-76
2024/01/10 00:57:03;;;;;;;4.97;2.70;;;;;;;-3.14;56.79;102953.50;5258742;28;20035;-76
2024/01/10 00:59:35;;;;;;;5.70;3.05;;;;;;;-3.09;55.15;102949.28;5255119;28;20033;-76
2024/01/10 01:02:07;;;;;;;7.43;3.70;;;;;;;-3.12;55.51;102959.53;5251512;28;20035;-76
2024/01/10 01:04:38;;;;;;;6.10;3.60;;;;;;;-3.07;57.82;102960.41;5256807;28;20041;-75
2024/01/10 01:07:10;;;;;;;5.65;3.03;;;;;;;-3.07;56.41;102966.41;5257083;28;20040;-75
2024/01/10 01:09:42;;;;;;;6.22;3.10;;;;;;;-3.13;58.75;102956.09;5257688;28;20055;-76
2024/01/10 01:12:14;;;;;;;6.15;3.17;;;;;;;-3.12;56.00;102957.81;5256953;28;20068;-75
2024/01/10 01:14:46;;;;;;;5.25;3.13;;;;;;;-3.13;55.89;102955.25;5257732;28;20036;-76
2024/01/10 01:17:18;;;;;;;5.38;3.28;;;;;;;-3.14;57.00;102954.41;5258620;28;20031;-76
2024/01/10 01:19:50;;;;;;;7.00;3.80;;;;;;;-3.24;57.90;102939.78;5257753;28;21202;-75
2024/01/10 01:22:22;;;;;;;5.18;3.20;;;;;;;-3.15;57.64;102960.34;5257173;28;20480;-76
2024/01/10 01:24:54;;;;;;;5.45;3.58;;;;;;;-3.12;57.19;102957.81;5256928;28;20509;-76
2024/01/10 01:27:25;;;;;;;5.78;2.90;;;;;;;-3.06;60.98;102951.88;5257789;28;20367;-76
2024/01/10 01:29:58;;;;;;;5.55;3.25;;;;;;;-3.15;56.12;102946.69;5238998;28;20052;-76
2024/01/10 01:32:29;;;;;;;5.22;3.22;;;;;;;-3.17;57.33;102950.97;5255876;28;20025;-76
2024/01/10 01:35:02;;;;;;;4.57;3.08;;;;;;;-3.17;59.72;102940.69;5254731;28;20027;-75
2024/01/10 01:37:34;;;;;;;5.07;3.33;;;;;;;-3.19;59.51;102949.22;5256406;28;20047;-75
2024/01/10 01:40:06;;;;;;;5.75;3.20;;;;;;;-3.22;57.67;102951.78;5256148;28;20033;-75
2024/01/10 01:42:38;;;;;;;4.47;2.83;;;;;;;-3.21;58.14;102947.50;5257037;28;20040;-75
2024/01/10 01:45:10;;;;;;;5.43;3.28;;;;;;;-3.30;58.08;102942.31;5257062;28;20632;-76
2024/01/10 01:47:42;;;;;;;6.25;3.10;;;;;;;-3.24;57.71;102952.63;5257215;28;20029;-76
2024/01/10 01:50:14;;;;;;;6.10;3.85;;;;;;;-3.24;59.08;102945.78;5257433;28;20064;-76
2024/01/10 01:52:46;;;;;;;5.75;3.30;;;;;;;-3.34;57.69;102936.31;5256506;28;20032;-76
2024/01/10 01:55:18;;;;;;;5.38;3.00;;;;;;;-3.28;59.31;102941.47;5256942;28;20040;-76
2024/01/10 01:57:50;;;;;;;4.93;3.28;;;;;;;-3.35;58.72;102937.16;5256354;28;20033;-76
2024/01/10 02:00:22;;;;;;;7.18;3.45;;;;;;;-3.28;60.52;102944.03;5257013;28;20028;-76
2024/01/10 02:02:54;;;;;;;6.10;3.88;;;;;;;-3.39;60.06;102916.63;5256963;28;20044;-76
2024/01/10 02:05:26;;;;;;;6.18;3.00;;;;;;;-3.30;60.95;102937.19;5255854;28;20033;-76
2024/01/10 02:07:58;;;;;;;5.55;3.22;;;;;;;-3.37;59.50;102925.19;5256729;28;20231;-76
2024/01/10 02:10:33;;;;;;;5.78;3.63;;;;;;;-3.33;58.68;102935.47;5237661;28;20041;-75
2024/01/10 02:13:08;;;;;;;4.63;3.38;;;;;;;-3.37;60.93;102935.44;5255804;28;20025;-75
2024/01/10 02:15:40;;;;;;;5.38;3.33;;;;;;;-3.38;59.62;102931.16;5237501;28;20045;-76
2024/01/10 02:18:14;;;;;;;6.82;3.80;;;;;;;-3.33;60.43;102932.91;5254526;28;20039;-75
2024/01/10 02:20:46;;;;;;;7.47;3.53;;;;;;;-3.34;59.51;102931.19;5237791;28;20517;-75
2024/01/10 02:23:18;;;;;;;5.45;3.22;;;;;;;-3.33;62.42;102922.66;5252928;28;20044;-75
2024/01/10 02:25:50;;;;;;;5.72;3.17;;;;;;;-3.43;59.86;102924.28;5253404;28;20499;-75
2024/01/10 02:28:25;;;;;;;6.38;3.53;;;;;;;-3.38;60.50;102926.03;5252067;28;20060;-75
2024/01/10 02:30:58;;;;;;;5.20;3.33;;;;;;;-3.41;61.03;102921.72;5255163;28;20040;-75
2024/01/10 02:33:31;;;;;;;4.85;3.33;;;;;;;-3.33;61.37;102927.78;5252623;28;20029;-75
2024/01/10 02:36:04;;;;;;;6.18;3.17;;;;;;;-3.44;60.34;102924.31;5254307;28;20268;-75
2024/01/10 02:38:36;;;;;;;5.53;3.33;;;;;;;-3.38;60.21;102929.44;5250467;28;20483;-75
2024/01/10 02:41:07;;;;;;;6.13;3.70;;;;;;;-3.40;62.48;102933.72;5253329;28;20035;-75
2024/01/10 02:43:39;;;;;;;5.93;3.40;;;;;;;-3.55;60.86;102910.56;5250706;28;20033;-75
2024/01/10 02:46:11;;;;;;;6.78;3.33;;;;;;;-3.46;60.29;102918.28;5254359;28;20043;-75
2024/01/10 02:48:43;;;;;;;9.13;3.42;;;;;;;-3.51;60.66;102919.97;5254451;28;20037;-75
2024/01/10 02:51:15;;;;;;;6.28;3.28;;;;;;;-3.49;64.11;102906.31;5255429;28;20025;-75
2024/01/10 02:53:47;;;;;;;5.55;3.30;;;;;;;-3.42;64.23;102914.91;5255450;28;20028;-75
2024/01/10 02:56:19;;;;;;;6.53;3.45;;;;;;;-3.43;61.44;102901.22;5235897;28;20103;-75
2024/01/10 02:58:51;;;;;;;4.85;3.20;;;;;;;-3.40;63.35;102914.94;5254663;28;20037;-75
2024/01/10 03:01:23;;;;;;;5.93;3.40;;;;;;;-3.47;62.13;102904.63;5254474;28;20046;-75
2024/01/10 03:03:55;;;;;;;6.40;3.63;;;;;;;-3.40;62.25;102907.25;5237272;28;20049;-75
2024/01/10 03:06:27;;;;;;;5.70;3.50;;;;;;;-3.42;63.78;102915.75;5254663;28;20035;-75
2024/01/10 03:08:58;;;;;;;6.50;3.38;;;;;;;-3.51;62.15;102902.03;5254092;28;20036;-75
2024/01/10 03:11:31;;;;;;;9.38;4.05;;;;;;;-3.50;62.58;102912.28;5216097;28;1131581;-75
2024/01/10 03:14:07;;;;;;;6.32;3.72;;;;;;;-3.49;62.77;102900.31;5236292;28;20047;-75
2024/01/10 03:16:39;;;;;;;5.55;3.38;;;;;;;-3.56;63.11;102891.78;5253944;28;20032;-75
2024/01/10 03:19:11;;;;;;;7.28;3.58;;;;;;;-3.44;64.78;102896.13;5252414;28;20440;-75
2024/01/10 03:21:43;;;;;;;6.60;3.58;;;;;;;-3.48;62.15;102892.69;5255310;28;20397;-75
2024/01/10 03:24:15;;;;;;;7.20;3.72;;;;;;;-3.45;65.67;102891.81;5251699;28;20033;-75
2024/01/10 03:26:47;;;;;;;6.13;3.70;;;;;;;-3.45;63.01;102889.25;5252446;28;20036;-75
2024/01/10 03:29:18;;;;;;;7.22;3.33;;;;;;;-3.46;63.90;102885.84;5251083;28;20031;-75
2024/01/10 03:31:50;;;;;;;6.63;3.85;;;;;;;-3.56;63.11;102873.84;5253094;28;20371;-75
2024/01/10 03:34:22;;;;;;;6.13;3.65;;;;;;;-3.56;64.07;102873.84;5248628;28;20219;-75
2024/01/10 03:36:54;;;;;;;6.30;3.35;;;;;;;-3.46;63.63;102887.53;5254459;28;20045;-75
2024/01/10 03:39:26;;;;;;;5.88;3.33;;;;;;;-3.50;64.63;102880.69;5252110;28;20021;-75
2024/01/10 03:41:58;;;;;;;7.80;3.97;;;;;;;-3.50;64.90;102878.97;5254551;28;20498;-75
2024/01/10 03:44:30;;;;;;;7.13;3.58;;;;;;;-3.55;63.34;102870.41;5252562;28;20051;-75
2024/01/10 03:47:02;;;;;;;8.80;4.00;;;;;;;-3.49;65.18;102874.72;5255383;28;20032;-75
2024/01/10 03:49:34;;;;;;;5.47;3.17;;;;;;;-3.45;64.38;102872.19;5254955;28;20037;-75
2024/01/10 03:52:06;;;;;;;5.60;3.65;;;;;;;-3.51;63.87;102872.16;5254068;28;20653;-75
2024/01/10 03:54:38;;;;;;;6.07;3.70;;;;;;;-3.58;64.09;102855.03;5254204;28;20053;-75
2024/01/10 03:57:10;;;;;;;6.75;4.05;;;;;;;-3.51;63.81;102863.59;5253619;28;20032;-75
2024/01/10 03:59:42;;;;;;;5.85;3.40;;;;;;;-3.54;64.21;102863.59;5252925;28;20474;-75
2024/01/10 04:02:14;;;;;;;6.20;3.35;;;;;;;-3.49;64.71;102861.91;5256054;28;20052;-75
2024/01/10 04:04:46;;;;;;;7.03;4.00;;;;;;;-3.56;64.88;102847.34;5261706;28;20029;-75
2024/01/10 04:07:18;;;;;;;6.72;3.97;;;;;;;-3.51;64.84;102856.78;5255791;28;20485;-75
2024/01/10 04:09:50;;;;;;;6.78;3.53;;;;;;;-3.57;65.31;102859.28;5254802;28;20465;-74
2024/01/10 04:12:22;;;;;;;5.78;3.80;;;;;;;-3.50;68.36;102873.00;5255049;28;20037;-74
2024/01/10 04:14:54;;;;;;;5.53;3.55;;;;;;;-3.55;67.55;102859.31;5253975;28;20033;-75
2024/01/10 04:17:25;;;;;;;5.95;3.47;;;;;;;-3.58;64.31;102854.16;5253038;28;20033;-74
2024/01/10 04:19:57;;;;;;;7.03;4.22;;;;;;;-3.67;65.70;102848.16;5251113;28;20153;-75
2024/01/10 04:22:29;;;;;;;6.35;3.90;;;;;;;-3.68;65.11;102851.53;5255364;28;20040;-75
2024/01/10 04:25:05;;;;;;;5.75;3.40;;;;;;;-3.62;66.63;102860.13;5253285;28;20052;-75
2024/01/10 04:27:40;;;;;;;7.18;3.55;;;;;;;-3.59;65.77;102855.88;5252118;28;20501;-75
2024/01/10 04:30:12;;;;;;;5.80;3.47;;;;;;;-3.65;66.95;102862.66;5253697;28;20028;-75
2024/01/10 04:32:44;;;;;;;7.57;4.05;;;;;;;-3.70;66.20;102858.38;5255167;28;20033;-75
2024/01/10 04:35:16;;;;;;;7.05;3.90;;;;;;;-3.74;67.25;102859.19;5252824;28;20031;-75
2024/01/10 04:37:48;;;;;;;5.35;3.38;;;;;;;-3.72;66.58;102851.50;5252981;28;20399;-75
2024/01/10 04:40:20;;;;;;;4.95;2.90;;;;;;;-3.73;67.30;102842.13;5248004;28;20028;-75
2024/01/10 04:42:51;;;;;;;6.72;3.97;;;;;;;-3.70;69.75;102844.69;5250101;28;20035;-75
2024/01/10 04:45:23;;;;;;;7.25;4.10;;;;;;;-3.80;68.67;102843.78;5255001;28;20039;-75
2024/01/10 04:47:55;;;;;;;5.93;3.50;;;;;;;-3.71;69.22;102845.56;5254437;28;20049;-75
2024/01/10 04:50:27;;;;;;;5.88;3.75;;;;;;;-3.69;68.31;102848.97;5250159;28;20033;-75
2024/01/10 04:52:59;;;;;;;7.40;4.00;;;;;;;-3.68;69.47;102853.25;5251280;28;20040;-75
2024/01/10 04:55:31;;;;;;;7.00;3.63;;;;;;;-3.78;68.46;102849.78;5256699;28;20013;-75
2024/01/10 04:58:03;;;;;;;6.55;3.78;;;;;;;-3.76;68.45;102849.78;5256266;28;20375;-75
2024/01/10 05:00:38;;;;;;;6.13;3.90;;;;;;;-3.77;69.06;102843.78;5256683;28;20030;-75
2024/01/10 05:03:10;;;;;;;7.28;3.80;;;;;;;-3.79;70.02;102842.06;5255147;28;20024;-75
2024/01/10 05:05:42;;;;;;;5.25;3.35;;;;;;;-3.76;69.38;102836.97;5254139;28;20044;-75
2024/01/10 05:08:14;;;;;;;5.97;3.72;;;;;;;-3.77;70.57;102837.81;5257281;28;20025;-75
2024/01/10 05:10:46;;;;;;;7.50;3.75;;;;;;;-3.77;69.56;102846.34;5256689;28;20033;-75
2024/01/10 05:13:18;;;;;;;5.43;3.30;;;;;;;-3.77;71.07;102848.06;5256500;28;20033;-75
2024/01/10 05:15:50;;;;;;;7.60;4.40;;;;;;;-3.78;68.63;102848.91;5258404;28;20114;-75
2024/01/10 05:18:22;;;;;;;7.10;4.30;;;;;;;-3.83;69.67;102840.31;5254535;28;20044;-75
2024/01/10 05:20:54;;;;;;;5.80;3.75;;;;;;;-3.83;69.85;102833.50;5257528;28;20029;-75
2024/01/10 05:23:26;;;;;;;5.45;3.55;;;;;;;-3.84;68.93;102842.03;5253711;28;20398;-75
2024/01/10 05:25:58;;;;;;;6.15;3.33;;;;;;;-3.80;68.01;102843.78;5238953;28;20072;-75
2024/01/10 05:28:30;;;;;;;5.55;2.92;;;;;;;-3.80;68.92;102843.78;5255054;28;20414;-75
2024/01/10 05:31:02;;;;;;;6.57;3.63;;;;;;;-3.85;69.07;102839.47;5255755;28;20025;-75
2024/01/10 05:33:34;;;;;;;7.20;4.43;;;;;;;-3.80;69.42;102842.91;5256619;28;20040;-75
2024/01/10 05:36:07;;;;;;;5.47;3.45;;;;;;;-3.84;70.21;102842.03;5254833;28;20041;-75
2024/01/10 05:38:40;;;;;;;6.63;4.20;;;;;;;-3.87;70.60;102836.88;5253136;28;20037;-75
2024/01/10 05:41:11;;;;;;;6.05;3.22;;;;;;;-3.89;69.48;102835.19;5256705;28;20032;-75
2024/01/10 05:43:43;;;;;;;6.63;3.83;;;;;;;-3.83;70.18;102848.00;5255424;28;20046;-75
2024/01/10 05:46:16;;;;;;;6.80;3.55;;;;;;;-3.85;68.37;102845.44;5254092;28;20033;-75
2024/01/10 05:48:48;;;;;;;7.30;3.83;;;;;;;-3.87;69.37;102844.56;5255117;28;20044;-75
2024/01/10 05:51:20;;;;;;;5.60;3.40;;;;;;;-3.87;69.27;102844.56;5256756;28;20021;-75
2024/01/10 05:53:51;;;;;;;5.25;3.20;;;;;;;-3.85;69.33;102850.56;5253326;28;20043;-75
2024/01/10 05:56:23;;;;;;;7.57;4.03;;;;;;;-4.03;69.00;102828.25;5256805;28;20027;-75
2024/01/10 05:58:55;;;;;;;5.50;3.75;;;;;;;-3.85;70.36;102842.91;5237832;28;20053;-75
2024/01/10 06:01:27;;;;;;;6.60;3.25;;;;;;;-3.89;69.19;102833.47;5253655;28;20578;-75
2024/01/10 06:03:59;;;;;;;4.97;3.50;;;;;;;-3.87;68.62;102843.72;5253883;28;20041;-75
2024/01/10 06:06:32;;;;;;;6.25;3.63;;;;;;;-3.87;70.68;102836.88;5251469;28;20036;-75
2024/01/10 06:09:04;;;;;;;7.67;3.70;;;;;;;-3.86;70.09;102848.88;5251124;28;20031;-75
2024/01/10 06:11:43;;;;;;;6.43;3.53;;;;;;;-3.82;71.16;102834.38;5256482;28;20056;-75
2024/01/10 06:14:15;;;;;;;6.20;4.00;;;;;;;-3.94;69.82;102843.69;5254882;28;20036;-75
2024/01/10 06:16:47;;;;;;;6.60;3.90;;;;;;;-3.94;70.27;102836.00;5255806;28;20043;-75
2024/01/10 06:19:19;;;;;;;4.72;2.90;;;;;;;-3.95;71.31;102835.97;5255382;28;20033;-75
2024/01/10 06:21:52;;;;;;;5.70;3.30;;;;;;;-3.97;71.24;102833.41;5255805;28;20062;-75
2024/01/10 06:24:24;;;;;;;8.90;4.10;;;;;;;-3.94;70.93;102838.56;5257384;28;20043;-75
2024/01/10 06:26:56;;;;;;;9.63;3.90;;;;;;;-3.91;71.39;102833.44;5250677;28;20044;-75
2024/01/10 06:29:28;;;;;;;6.57;4.05;;;;;;;-3.98;70.13;102823.16;5235008;28;20036;-75
2024/01/10 06:32:01;;;;;;;5.95;4.22;;;;;;;-4.35;72.24;102769.16;5256666;28;20036;-75
2024/01/10 06:34:33;;;;;;;6.00;3.28;;;;;;;-4.23;70.79;102788.84;5253516;28;20037;-74
2024/01/10 06:37:07;;;;;;;6.03;3.67;;;;;;;-3.93;70.28;102847.97;5237744;28;20397;-75
2024/01/10 06:39:39;;;;;;;6.78;3.40;;;;;;;-3.98;72.27;102844.53;5237432;28;20044;-75
2024/01/10 06:42:11;;;;;;;5.63;3.45;;;;;;;-4.01;71.34;102846.19;5254589;28;20021;-75
2024/01/10 06:44:43;;;;;;;7.80;4.32;;;;;;;-4.01;72.39;102838.50;5253328;28;20032;-76
2024/01/10 06:47:15;;;;;;;6.45;3.47;;;;;;;-4.00;72.29;102838.50;5256003;28;20389;-76
2024/01/10 06:49:47;;;;;;;8.52;4.22;;;;;;;-4.09;72.54;102843.56;5233400;28;20033;-76
2024/01/10 06:52:19;;;;;;;7.35;4.15;;;;;;;-4.14;72.21;102839.25;5256089;28;20025;-76
2024/01/10 06:54:51;;;;;;;6.22;3.63;;;;;;;-4.10;73.79;102833.31;5252175;28;20045;-76
2024/01/10 06:57:23;;;;;;;7.25;3.78;;;;;;;-4.09;74.19;102841.00;5236889;28;20044;-76
2024/01/10 06:59:55;;;;;;;8.30;3.78;;;;;;;-4.16;73.42;102829.00;5253884;28;20040;-76
2024/01/10 07:02:27;;;;;;;7.32;3.97;;;;;;;-4.12;74.09;102835.88;5249037;28;20401;-76
2024/01/10 07:04:59;;;;;;;8.23;4.22;;;;;;;-4.11;73.54;102842.69;5251031;28;20025;-76
2024/01/10 07:07:31;;;;;;;6.93;3.90;;;;;;;-4.12;75.46;102850.38;5234427;28;20040;-76
2024/01/10 07:10:04;;;;;;;7.93;4.63;;;;;;;-4.16;75.27;102849.47;5235168;28;20410;-76
2024/01/10 07:12:36;;;;;;;;;;;;;;;-3.74;72.31;102848.94;5255193;28;20394;-76
2024/01/10 07:15:08;;;;;;;8.20;3.80;;;;;;;-4.13;74.58;102856.31;5238007;28;19942;-76
2024/01/10 07:17:40;;;;;;;6.37;3.70;;;;;;;-4.19;75.28;102859.69;5261573;28;20060;-76
2024/01/10 07:20:12;;;;;;;8.00;3.95;;;;;;;-4.26;73.97;102842.56;5259552;28;20033;-76
2024/01/10 07:22:45;;;;;;;7.47;4.13;;;;;;;-4.17;75.00;102847.75;5255800;28;20029;-75
2024/01/10 07:25:17;;;;;;;7.10;3.90;;;;;;;-4.25;74.40;102829.75;5253701;28;20039;-76
2024/01/10 07:27:49;;;;;;;6.13;3.88;;;;;;;-4.21;75.49;102834.06;5254771;28;20043;-76
2024/01/10 07:30:21;;;;;;;7.22;4.05;;;;;;;-4.22;75.16;102829.78;5254533;28;20028;-75
2024/01/10 07:32:53;;;;;;;6.35;4.15;;;;;;;-4.26;74.42;102822.09;5253402;28;20044;-76
2024/01/10 07:35:25;;;;;;;7.07;4.40;;;;;;;-4.28;77.40;102829.75;5250209;28;20501;-76
2024/01/10 07:37:57;;;;;;;9.43;4.28;;;;;;;-4.29;76.35;102833.16;5229295;23;20059;-75
2024/01/10 07:40:28;;;;;;;8.30;4.22;;;;;;;-4.21;75.64;102839.19;5228261;28;20284;-76
2024/01/10 07:43:00;;;;;;;6.20;4.03;;;;;;;-4.22;76.92;102834.06;5227284;28;20040;-74
2024/01/10 07:45:33;;;;;;;8.13;4.18;;;;;;;-4.23;75.97;102832.34;5225431;28;20227;-75
2024/01/10 07:48:05;;;;;;;6.10;3.47;;;;;;;-4.16;76.77;102831.56;5220436;28;20048;-74
2024/01/10 07:50:37;;;;;;;7.72;4.47;;;;;;;-4.22;75.98;102824.69;5227715;28;20037;-76
2024/01/10 07:53:09;;;;;;;7.45;4.32;;;;;;;-4.19;75.98;102819.59;5225451;28;20029;-76
2024/01/10 07:55:41;;;;;;;7.80;4.43;;;;;;;-4.21;76.67;102822.97;5227321;28;20047;-77
2024/01/10 07:58:13;;;;;;;6.93;4.55;;;;;;;-4.19;76.93;102832.38;5227470;28;20467;-76
2024/01/10 08:00:46;;;;;;;7.53;4.82;;;;;;;-4.18;77.84;102833.25;5224679;28;20437;-76
2024/01/10 08:03:17;;;;;;;7.85;4.40;;;;;;;-4.14;78.17;102839.25;5221929;28;20029;-76
2024/01/10 08:05:49;;;;;;;8.00;4.70;;;;;;;-4.13;76.57;102840.94;5224800;28;20039;-77
2024/01/10 08:08:22;;;;;;;8.35;5.22;;;;;;;-4.13;77.48;102833.28;5227064;28;20475;-76
2024/01/10 08:10:55;;;;;;;9.53;5.37;;;;;;;-4.08;76.08;102840.16;5225660;28;20025;-76
2024/01/10 08:13:27;;;;;;;7.22;4.53;;;;;;;-4.13;75.53;102838.38;5226739;28;20028;-75
2024/01/10 08:15:59;;;;;;;7.10;4.55;;;;;;;-4.09;76.04;102846.13;5225583;28;20046;-75
2024/01/10 08:18:31;;;;;;;7.68;5.00;;;;;;;-4.09;75.65;102850.38;5222703;28;20049;-76
2024/01/10 08:21:04;;;;;;;7.72;4.85;;;;;;;-4.12;75.96;102853.78;5224550;28;20041;-75
2024/01/10 08:23:36;;;;;;;8.07;4.80;;;;;;;-4.07;76.97;102848.69;5225833;28;20056;-75
2024/01/10 08:26:11;;;;;;;6.82;4.10;;;;;;;-4.07;76.10;102861.50;5227425;28;20021;-75
2024/01/10 08:28:43;;;;;;;11.80;4.57;;;;;;;-4.06;76.20;102856.38;5224620;28;20536;-75
2024/01/10 08:31:18;;;;;;;10.00;5.20;;;;;;;-3.99;76.80;102854.72;5220578;28;20041;-75
2024/01/10 08:33:50;;;;;;;8.80;4.95;;;;;;;-4.05;76.09;102864.91;5226342;28;20033;-76
2024/01/10 08:36:24;;;;;;;9.02;4.60;;;;;;;-4.03;75.41;102860.66;5224964;28;20049;-75
2024/01/10 08:38:55;;;;;;;10.52;5.30;;;;;;;-3.96;76.76;102862.44;5226479;28;20048;-75
2024/01/10 08:41:27;;;;;;;9.73;5.15;;;;;;;-3.99;75.67;102847.03;5217261;28;20033;-76
2024/01/10 08:43:59;;;;;;;8.88;4.85;;;;;;;-3.95;76.88;102847.06;5223977;28;20500;-75
2024/01/10 08:46:31;;;;;;;9.18;4.88;;;;;;;-3.91;75.83;102853.06;5227905;28;20467;-75
2024/01/10 08:49:03;;;;;;;7.05;4.47;;;;;;;-3.87;76.15;102849.69;5224227;28;20048;-75
2024/01/10 08:51:35;;;;;;;9.80;4.80;;;;;;;-3.89;75.44;102851.41;5228129;28;20490;-76
2024/01/10 08:54:07;;;;;;;7.80;5.00;;;;;;;-3.81;76.14;102865.13;5229126;28;20049;-75
2024/01/10 08:56:39;;;;;;;8.77;4.97;;;;;;;-3.82;74.87;102855.72;5225276;28;20552;-75
2024/01/10 08:59:12;;;;;;;8.57;5.10;;;;;;;-3.86;75.79;102846.31;5226405;28;20041;-75
2024/01/10 09:01:44;;;;;;;7.32;4.72;;;;;;;-3.70;73.08;102860.94;5226468;28;20421;-76
2024/01/10 09:04:16;;;;;;;10.68;5.35;;;;;;;-3.71;73.09;102856.66;5227692;28;20037;-75
2024/01/10 09:06:48;;;;;;;8.38;4.68;;;;;;;-3.62;72.56;102860.13;5226362;28;20363;-75
2024/01/10 09:09:20;;;;;;;10.20;5.20;;;;;;;-3.66;72.55;102854.13;5224649;28;20332;-75
2024/01/10 09:11:52;;;;;;;9.23;5.28;;;;;;;-3.60;70.67;102853.28;5223878;28;20364;-76
2024/01/10 09:14:24;;;;;;;7.05;4.13;;;;;;;-3.56;71.11;102845.66;5226024;28;20036;-76
2024/01/10 09:16:56;;;;;;;8.52;4.55;;;;;;;-3.56;70.68;102849.88;5225439;28;20037;-76
2024/01/10 09:19:29;;;;;;;11.45;4.70;;;;;;;-3.53;71.29;102847.34;5219712;28;20040;-76
2024/01/10 09:22:01;;;;;;;;;;;;;;;-3.10;69.37;102863.81;5229877;28;20037;-76
2024/01/10 09:24:33;;;;;;;8.32;4.63;;;;;;;-3.34;70.11;102864.53;5222772;28;19916;-76
2024/01/10 09:27:05;;;;;;;10.15;5.03;;;;;;;-3.38;68.26;102852.56;5230205;28;20052;-76
2024/01/10 09:29:36;;;;;;;8.70;5.32;;;;;;;-3.28;69.13;102874.00;5224189;28;20049;-76
2024/01/10 09:32:08;;;;;;;9.98;5.55;;;;;;;-3.26;68.01;102870.59;5220280;28;20026;-76
2024/01/10 09:34:40;;;;;;;11.32;5.95;;;;;;;-3.23;67.86;102872.28;5221119;28;20048;-76
2024/01/10 09:37:12;;;;;;;8.70;5.38;;;;;;;-3.17;67.40;102872.34;5229885;28;20040;-76
2024/01/10 09:39:44;;;;;;;9.98;5.70;;;;;;;-3.11;65.46;102872.34;5226552;28;20041;-76
2024/01/10 09:42:16;;;;;;;8.73;5.45;;;;;;;-3.09;66.57;102883.47;5225529;28;20037;-76
2024/01/10 09:44:48;;;;;;;10.07;5.35;;;;;;;-3.01;66.75;102879.25;5225278;28;20041;-76
2024/01/10 09:47:20;;;;;;;9.35;5.82;;;;;;;-2.99;66.40;102869.00;5227022;28;20033;-76
2024/01/10 09:49:52;;;;;;;9.35;5.60;;;;;;;-2.90;64.99;102868.19;5226758;28;20036;-76
2024/01/10 09:52:27;;;;;;;11.23;5.57;;;;;;;-2.87;65.09;102874.19;5225849;28;20044;-76
2024/01/10 09:55:00;;;;;;;9.65;5.50;;;;;;;-2.79;65.69;102877.63;5226388;28;20036;-76
2024/01/10 09:57:34;;;;;;;10.32;5.85;;;;;;;-2.82;65.00;102863.94;5222764;28;20244;-76
2024/01/10 10:00:10;;;;;;;10.23;6.38;;;;;;;-2.70;63.95;102879.34;5224820;28;21012;-76
2024/01/10 10:02:42;;;;;;;10.48;5.50;;;;;;;-2.65;63.85;102885.38;5223160;28;20041;-76
2024/01/10 10:05:16;;;;;;;10.93;6.95;;;;;;;-2.55;64.71;102889.66;5225608;28;20030;-76
2024/01/10 10:07:49;;;;;;;10.27;6.30;;;;;;;-2.54;61.63;102887.94;5225732;28;20029;-76
2024/01/10 10:10:21;;;;;;;10.68;5.93;;;;;;;-2.59;61.60;102867.41;5225570;28;20040;-76
2024/01/10 10:12:53;;;;;;;11.30;6.35;;;;;;;-2.52;61.05;102868.28;5225464;28;20056;-76
2024/01/10 10:15:26;;;;;;;10.18;6.07;;;;;;;-2.46;60.52;102863.19;5227557;28;20379;-76
2024/01/10 10:17:58;;;;;;;12.07;7.10;;;;;;;-2.34;59.70;102870.88;5225059;28;20053;-76
2024/01/10 10:20:36;;;;;;;11.65;7.07;;;;;;;-2.23;59.92;102873.47;5227165;28;20040;-76
2024/01/10 10:23:12;;;;;;;10.80;6.30;;;;;;;-2.19;60.14;102877.75;5225824;28;20025;-76
2024/01/10 10:25:45;;;;;;;11.95;6.70;;;;;;;-2.11;58.75;102878.63;5226856;28;20052;-76
2024/01/10 10:28:17;;;;;;;;;;;;;;;-1.73;57.01;102875.19;5226383;28;20494;-76
2024/01/10 10:30:51;;;;;;;10.05;6.22;;;;;;;-1.91;59.19;102870.91;5226780;28;19928;-76
2024/01/10 10:33:24;;;;;;;11.52;6.25;;;;;;;-1.90;58.45;102864.03;5223619;28;20188;-76
2024/01/10 10:35:56;;;;;;;11.27;6.70;;;;;;;-1.87;56.92;102864.91;5226911;28;20029;-76
2024/01/10 10:38:27;;;;;;;11.35;6.75;;;;;;;-1.76;57.15;102864.91;5224240;28;20041;-76
2024/01/10 10:41:00;;;;;;;10.85;6.70;;;;;;;-1.75;55.19;102853.75;5222924;28;20060;-76
2024/01/10 10:43:37;;;;;;;11.50;6.78;;;;;;;-1.60;57.64;102845.16;5222011;28;20514;-76
2024/01/10 10:46:14;;;;;;;11.90;6.72;;;;;;;-1.59;54.75;102849.44;5226515;28;20163;-76
2024/01/10 10:48:48;;;;;;;10.20;6.03;;;;;;;-1.55;55.40;102848.59;5220395;28;20045;-76
2024/01/10 10:51:26;;;;;;;11.43;6.70;;;;;;;-1.41;54.90;102839.13;5226414;28;20033;-76
2024/01/10 10:53:59;;;;;;;11.38;7.15;;;;;;;-1.38;54.29;102851.97;5223955;28;20037;-76
2024/01/10 10:56:36;;;;;;;11.73;6.72;;;;;;;-1.38;54.15;102851.97;5223324;28;20029;-76
2024/01/10 10:59:10;;;;;;;12.10;7.60;;;;;;;-1.33;54.09;102852.81;5221281;28;20478;-76
2024/01/10 11:01:44;;;;;;;11.43;6.28;;;;;;;-1.29;53.29;102846.81;5226858;28;20216;-76
2024/01/10 11:04:17;;;;;;;11.38;6.57;;;;;;;-1.24;53.10;102852.78;5225608;28;20029;-76
2024/01/10 11:06:49;;;;;;;13.15;7.15;;;;;;;-1.13;54.21;102852.75;5224455;28;20037;-76
2024/01/10 11:09:23;;;;;;;11.20;6.72;;;;;;;-1.08;54.31;102855.31;5222126;28;20044;-76
2024/01/10 11:12:07;;;;;;;10.63;7.05;;;;;;;-0.99;52.94;102842.38;5225465;28;20041;-76
2024/01/10 11:15:13;;;;;;;11.70;7.13;;;;;;;-0.84;51.99;102841.47;5224574;28;20040;-76
2024/01/10 11:18:03;;;;;;;13.57;6.68;;;;;;;-0.75;53.50;102844.00;5222717;28;20056;-76
2024/01/10 11:20:50;;;;;;;13.95;7.15;;;;;;;-0.85;53.40;102843.19;5221984;28;20704;-76
2024/01/10 11:23:45;;;;;;;12.60;6.88;;;;;;;-0.64;53.48;102836.22;5222782;28;20037;-76
2024/01/10 11:26:20;;;;;;;12.52;7.00;;;;;;;-0.70;53.73;102829.38;5226471;28;20040;-76
2024/01/10 11:28:52;;;;;;;13.15;7.22;;;;;;;-0.70;53.01;102829.38;5225644;28;20040;-76
2024/01/10 11:31:29;;;;;;;12.65;6.97;;;;;;;-0.66;51.81;102810.47;5225024;28;20048;-76
2024/01/10 11:34:04;;;;;;;14.68;7.45;;;;;;;-0.60;51.25;102830.19;5225471;28;20033;-76
2024/01/10 11:36:36;;;;;;;11.25;6.65;;;;;;;-0.58;53.06;102825.88;5227725;28;20499;-76
2024/01/10 11:39:12;;;;;;;14.00;7.45;;;;;;;-0.46;51.45;102820.63;5227322;28;20044;-76
2024/01/10 11:41:46;;;;;;;11.73;7.18;;;;;;;-0.30;51.07;102819.69;5226261;28;20025;-76
2024/01/10 11:44:28;;;;;;;12.00;6.95;;;;;;;-0.19;51.45;102811.88;5224220;28;20053;-76
2024/01/10 11:47:00;;;;;;;12.48;7.28;;;;;;;-0.28;50.46;102810.19;5224034;28;20056;-77
2024/01/10 11:49:32;;;;;;;17.10;8.93;;;;;;;-0.34;50.30;102797.38;5223594;28;20043;-76